Algoma Mariner — CFN5517 — position and weather

sailwx.info

Track history (hours):
 
Tides and Currents Weather Stations Pressure Air Temp Water Temp Dewpoint Dewpoint Depression Visibility Wind Speed Wind Dir Waves Ship Positions

Algoma Mariner

Last reported at 2018-Apr-11 08:57 UTC. Time now 2018-Apr-24 08:28 UTC.
Position N 46°50' W 071°09'.
Warning: this ship's position is 12 days out of date.

Length 225 m; draft 8.1 m.

Type: Cargo ship. MMSI: 316014050.

Date/timePositionNaut miles runAvg speedWind from/ knotsBaromVisibWave heightAir tempDewpointWater temp
2018-Apr-11 08:57N 46°50' W 071°09'9111.7
2018-Apr-11 01:11N 46°04' W 073°02'213.2
2018-Apr-11 01:00N 46°04' W 073°05'3811.4
2018-Apr-10 21:41N 45°30' W 073°31'1 3.2
2018-Apr-10 21:30N 45°30' W 073°31'0 0.3
2018-Apr-10 21:00N 45°30' W 073°31'1 1.9
2018-Apr-10 20:30N 45°29' W 073°31'3 6.0
2018-Apr-10 20:00N 45°26' W 073°30'3 5.5
2018-Apr-10 19:30N 45°24' W 073°34'0 0.5
2018-Apr-10 19:00N 45°24' W 073°34'1 1.8
2018-Apr-10 18:30N 45°24' W 073°35'3 5.1
2018-Apr-10 18:00N 45°24' W 073°39'3 5.5
2018-Apr-10 17:30N 45°25' W 073°43'5 9.9
2018-Apr-10 17:00N 45°23' W 073°49'510.7
2018-Apr-10 16:30N 45°19' W 073°55'0 0.5
2018-Apr-10 16:01N 45°19' W 073°55'1 1.6
2018-Apr-10 15:30N 45°18' W 073°56'0 0.6
2018-Apr-10 15:01N 45°18' W 073°56'2 3.8
2018-Apr-10 14:30N 45°16' W 073°57'5 9.2
2018-Apr-10 14:00N 45°13' W 074°02'5 9.7
2018-Apr-10 13:30N 45°14' W 074°09'  
2018-Apr-03 11:42N 45°14' W 074°13'2 9.7
2018-Apr-03 11:30N 45°14' W 074°10'5 8.5
2018-Apr-03 10:54N 45°13' W 074°03'3 7.7
2018-Apr-03 10:30N 45°15' W 073°59'4 7.3
2018-Apr-03 10:01N 45°18' W 073°56'1 1.5
2018-Apr-03 09:30N 45°18' W 073°56'1 1.5
2018-Apr-03 09:00N 45°19' W 073°55'0 0.4
2018-Apr-03 08:31N 45°19' W 073°55'0 0.6
2018-Apr-03 08:01N 45°19' W 073°55'1 1.2
2018-Apr-03 07:30N 45°20' W 073°55'3 6.3
2018-Apr-03 07:00N 45°21' W 073°51'510.2
2018-Apr-03 06:30N 45°24' W 073°45'3 6.8
2018-Apr-03 06:00N 45°25' W 073°40'3 5.8
2018-Apr-03 05:30N 45°24' W 073°36'1 2.7
2018-Apr-03 05:01N 45°24' W 073°34'0 0.0
2018-Apr-03 04:31N 45°24' W 073°34'0 0.1
2018-Apr-03 04:01N 45°24' W 073°34'1 2.1
2018-Apr-03 03:30N 45°24' W 073°32'2 4.6
2018-Apr-03 03:01N 45°26' W 073°30'3 6.3
2018-Apr-03 02:30N 45°29' W 073°31'0 0.9
2018-Apr-03 02:01N 45°30' W 073°31'0 0.5
2018-Apr-03 01:30N 45°30' W 073°31'1 1.9
2018-Apr-03 01:00N 45°31' W 073°31'34 2.3
2018-Apr-02 09:50N 46°02' W 073°10'3 9.2
2018-Apr-02 09:30N 46°03' W 073°06'91 9.3
2018-Apr-01 23:48N 46°48' W 071°12'3 9.8
2018-Apr-01 23:31N 46°51' W 071°09'  
Track history (hours):
 
Tides and Currents Weather Stations Pressure Air Temp Water Temp Dewpoint Dewpoint Depression Visibility Wind Speed Wind Dir Waves Ship Positions

Algoma Mariner

Last reported at 2018-Apr-11 08:57 UTC. Time now 2018-Apr-24 08:28 UTC.
Position N 46°50' W 071°09'.
Warning: this ship's position is 12 days out of date.

Length 225 m; draft 8.1 m.

Type: Cargo ship. MMSI: 316014050.

Date/timePositionNaut miles runAvg speedWind from/ knotsBaromVisibWave heightAir tempDewpointWater temp
2018-Apr-11 08:57N 46°50' W 071°09'9111.7
2018-Apr-11 01:11N 46°04' W 073°02'213.2
2018-Apr-11 01:00N 46°04' W 073°05'3811.4
2018-Apr-10 21:41N 45°30' W 073°31'1 3.2
2018-Apr-10 21:30N 45°30' W 073°31'0 0.3
2018-Apr-10 21:00N 45°30' W 073°31'1 1.9
2018-Apr-10 20:30N 45°29' W 073°31'3 6.0
2018-Apr-10 20:00N 45°26' W 073°30'3 5.5
2018-Apr-10 19:30N 45°24' W 073°34'0 0.5
2018-Apr-10 19:00N 45°24' W 073°34'1 1.8
2018-Apr-10 18:30N 45°24' W 073°35'3 5.1
2018-Apr-10 18:00N 45°24' W 073°39'3 5.5
2018-Apr-10 17:30N 45°25' W 073°43'5 9.9
2018-Apr-10 17:00N 45°23' W 073°49'510.7
2018-Apr-10 16:30N 45°19' W 073°55'0 0.5
2018-Apr-10 16:01N 45°19' W 073°55'1 1.6
2018-Apr-10 15:30N 45°18' W 073°56'0 0.6
2018-Apr-10 15:01N 45°18' W 073°56'2 3.8
2018-Apr-10 14:30N 45°16' W 073°57'5 9.2
2018-Apr-10 14:00N 45°13' W 074°02'5 9.7
2018-Apr-10 13:30N 45°14' W 074°09'  
2018-Apr-03 11:42N 45°14' W 074°13'2 9.7
2018-Apr-03 11:30N 45°14' W 074°10'5 8.5
2018-Apr-03 10:54N 45°13' W 074°03'3 7.7
2018-Apr-03 10:30N 45°15' W 073°59'4 7.3
2018-Apr-03 10:01N 45°18' W 073°56'1 1.5
2018-Apr-03 09:30N 45°18' W 073°56'1 1.5
2018-Apr-03 09:00N 45°19' W 073°55'0 0.4
2018-Apr-03 08:31N 45°19' W 073°55'0 0.6
2018-Apr-03 08:01N 45°19' W 073°55'1 1.2
2018-Apr-03 07:30N 45°20' W 073°55'3 6.3
2018-Apr-03 07:00N 45°21' W 073°51'510.2
2018-Apr-03 06:30N 45°24' W 073°45'3 6.8
2018-Apr-03 06:00N 45°25' W 073°40'3 5.8
2018-Apr-03 05:30N 45°24' W 073°36'1 2.7
2018-Apr-03 05:01N 45°24' W 073°34'0 0.0
2018-Apr-03 04:31N 45°24' W 073°34'0 0.1
2018-Apr-03 04:01N 45°24' W 073°34'1 2.1
2018-Apr-03 03:30N 45°24' W 073°32'2 4.6
2018-Apr-03 03:01N 45°26' W 073°30'3 6.3
2018-Apr-03 02:30N 45°29' W 073°31'0 0.9
2018-Apr-03 02:01N 45°30' W 073°31'0 0.5
2018-Apr-03 01:30N 45°30' W 073°31'1 1.9
2018-Apr-03 01:00N 45°31' W 073°31'34 2.3
2018-Apr-02 09:50N 46°02' W 073°10'3 9.2
2018-Apr-02 09:30N 46°03' W 073°06'91 9.3
2018-Apr-01 23:48N 46°48' W 071°12'3 9.8
2018-Apr-01 23:31N 46°51' W 071°09'  

Dump ship's entire track history